createdAt,value
2023-05-07T00:00:16.654Z,48.73
2023-05-07T00:02:44.029Z,48.53
2023-05-07T00:05:11.238Z,48.46
2023-05-07T00:07:38.357Z,48.53
2023-05-07T00:10:07.749Z,48.50
2023-05-07T00:12:34.893Z,48.57
2023-05-07T00:15:03.951Z,48.76
2023-05-07T00:17:31.515Z,48.79
2023-05-07T00:19:58.498Z,48.77
2023-05-07T00:22:25.362Z,48.93
2023-05-07T00:24:52.249Z,48.79
2023-05-07T00:27:19.054Z,49.15
2023-05-07T00:29:46.037Z,49.12
2023-05-07T00:32:13.204Z,49.18
2023-05-07T00:34:40.716Z,49.32
2023-05-07T00:37:08.606Z,49.59
2023-05-07T00:39:35.926Z,49.60
2023-05-07T00:42:03.909Z,49.66
2023-05-07T00:44:30.770Z,49.94
2023-05-07T00:46:58.252Z,50.03
2023-05-07T00:49:38.497Z,50.16
2023-05-07T00:52:12.354Z,49.98
2023-05-07T00:54:39.249Z,50.44
2023-05-07T00:57:06.104Z,50.01
2023-05-07T00:59:33.312Z,50.19
2023-05-07T01:02:00.549Z,50.71
2023-05-07T01:04:27.608Z,50.57
2023-05-07T01:07:20.868Z,50.56
2023-05-07T01:09:47.807Z,50.93
2023-05-07T01:12:14.972Z,50.91
2023-05-07T01:14:41.836Z,51.02
2023-05-07T01:17:09.536Z,50.97
2023-05-07T01:19:37.389Z,51.45
2023-05-07T01:22:09.926Z,51.25
2023-05-07T01:24:45.033Z,51.62
2023-05-07T01:27:12.716Z,51.68
2023-05-07T01:29:39.939Z,51.78
2023-05-07T01:32:06.825Z,52.26
2023-05-07T01:34:34.051Z,52.61
2023-05-07T01:37:01.052Z,52.63
2023-05-07T01:39:29.467Z,52.94
2023-05-07T01:41:57.720Z,52.41
2023-05-07T01:44:24.885Z,52.68
2023-05-07T01:46:52.004Z,52.92
2023-05-07T01:49:19.024Z,53.35
2023-05-07T01:51:46.453Z,53.36
2023-05-07T01:54:13.412Z,53.24
2023-05-07T01:56:40.429Z,53.25
2023-05-07T01:59:07.431Z,53.32
2023-05-07T02:01:34.446Z,53.43
2023-05-07T02:04:01.673Z,53.81
2023-05-07T02:06:29.297Z,53.79
2023-05-07T02:09:00.995Z,53.92
2023-05-07T02:11:28.780Z,53.77
2023-05-07T02:13:55.641Z,53.92
2023-05-07T02:16:23.497Z,53.99
2023-05-07T02:18:51.196Z,54.09
2023-05-07T02:21:18.107Z,54.06
2023-05-07T02:23:45.022Z,53.94
2023-05-07T02:26:12.300Z,53.96
2023-05-07T02:28:39.448Z,53.96
2023-05-07T02:31:07.224Z,54.52
2023-05-07T02:33:36.058Z,54.74
2023-05-07T02:36:08.946Z,54.82
2023-05-07T02:38:37.087Z,54.94
2023-05-07T02:41:04.429Z,54.91
2023-05-07T02:43:31.628Z,55.05
2023-05-07T02:46:09.293Z,55.49
2023-05-07T02:48:39.570Z,55.32
2023-05-07T02:51:06.782Z,55.42
2023-05-07T02:53:34.267Z,55.65
2023-05-07T02:56:01.656Z,55.92
2023-05-07T02:58:28.672Z,55.78
2023-05-07T03:00:58.561Z,55.60
2023-05-07T03:03:39.168Z,55.89
2023-05-07T03:06:07.815Z,56.17
2023-05-07T03:08:34.763Z,56.48
2023-05-07T03:11:01.596Z,56.55
2023-05-07T03:13:28.693Z,56.36
2023-05-07T03:15:56.133Z,56.28
2023-05-07T03:18:23.275Z,56.38
2023-05-07T03:20:50.791Z,56.55
2023-05-07T03:23:18.271Z,56.77
2023-05-07T03:25:45.229Z,56.79
2023-05-07T03:28:12.143Z,56.81
2023-05-07T03:30:43.899Z,57.07
2023-05-07T03:33:10.912Z,57.08
2023-05-07T03:35:38.349Z,57.52
2023-05-07T03:38:05.797Z,57.88
2023-05-07T03:40:34.500Z,58.43
2023-05-07T03:43:01.984Z,58.48
2023-05-07T03:45:30.109Z,58.90
2023-05-07T03:48:05.321Z,59.25
2023-05-07T03:50:32.327Z,59.76
2023-05-07T03:52:59.698Z,59.87
2023-05-07T03:55:27.913Z,59.96
2023-05-07T03:57:57.717Z,60.45
2023-05-07T04:00:25.638Z,60.42
2023-05-07T04:02:52.536Z,60.49
2023-05-07T04:05:24.956Z,60.54
2023-05-07T04:07:55.108Z,60.70
2023-05-07T04:10:26.415Z,61.25
2023-05-07T04:12:54.975Z,61.41
2023-05-07T04:15:22.253Z,61.56
2023-05-07T04:17:49.242Z,61.79
2023-05-07T04:20:17.684Z,61.84
2023-05-07T04:22:46.834Z,61.69
2023-05-07T04:25:13.705Z,62.02
2023-05-07T04:27:40.812Z,62.25
2023-05-07T04:30:08.791Z,62.19
2023-05-07T04:32:39.098Z,62.65
2023-05-07T04:35:07.006Z,62.80
2023-05-07T04:37:34.436Z,62.61
2023-05-07T04:40:01.609Z,62.29
2023-05-07T04:42:29.297Z,62.59
2023-05-07T04:44:56.337Z,62.91
2023-05-07T04:47:23.768Z,62.84
2023-05-07T04:50:16.299Z,62.71
2023-05-07T04:52:43.558Z,62.45
2023-05-07T04:55:10.760Z,62.82
2023-05-07T04:57:41.662Z,62.72
2023-05-07T05:00:12.917Z,63.22
2023-05-07T05:02:40.565Z,62.42
2023-05-07T05:05:08.504Z,62.44
2023-05-07T05:07:36.019Z,62.39
2023-05-07T05:10:04.278Z,62.45
2023-05-07T05:12:31.853Z,62.63
2023-05-07T05:14:59.279Z,63.17
2023-05-07T05:17:26.210Z,62.80
2023-05-07T05:19:53.093Z,62.93
2023-05-07T05:24:49.505Z,62.88
2023-05-07T05:27:16.460Z,62.57
2023-05-07T05:29:43.493Z,62.22
2023-05-07T05:32:11.134Z,61.79
2023-05-07T05:34:41.534Z,62.04
2023-05-07T05:37:08.471Z,62.13
2023-05-07T05:39:35.358Z,62.10
2023-05-07T05:42:02.511Z,62.25
2023-05-07T05:44:29.503Z,62.03
2023-05-07T05:46:58.835Z,61.65
2023-05-07T05:49:26.342Z,60.78
2023-05-07T05:51:53.446Z,60.41
2023-05-07T05:54:21.329Z,60.20
2023-05-07T05:56:48.501Z,59.85
2023-05-07T05:59:15.956Z,59.89
2023-05-07T06:01:46.367Z,58.75
2023-05-07T06:04:13.453Z,58.81
2023-05-07T06:06:40.358Z,58.34
2023-05-07T06:09:07.353Z,58.39
2023-05-07T06:11:42.256Z,57.85
2023-05-07T06:14:09.771Z,57.39
2023-05-07T06:16:39.265Z,56.79
2023-05-07T06:19:07.071Z,55.67
2023-05-07T06:21:34.534Z,54.56
2023-05-07T06:24:01.650Z,54.78
2023-05-07T06:26:28.860Z,54.90
2023-05-07T06:28:55.798Z,54.52
2023-05-07T06:31:23.752Z,54.31
2023-05-07T06:33:56.433Z,53.51
2023-05-07T06:36:24.320Z,52.71
2023-05-07T06:38:52.021Z,51.89
2023-05-07T06:41:18.990Z,52.13
2023-05-07T06:43:45.916Z,51.14
2023-05-07T06:46:33.329Z,51.14
2023-05-07T06:49:00.401Z,51.25
2023-05-07T06:51:28.047Z,51.34
2023-05-07T06:53:55.616Z,51.13
2023-05-07T06:56:23.968Z,50.92
2023-05-07T06:58:50.991Z,50.98
2023-05-07T07:01:19.025Z,50.75
2023-05-07T07:03:46.122Z,50.07
2023-05-07T07:06:12.998Z,50.23
2023-05-07T07:08:39.911Z,50.13
2023-05-07T07:11:07.494Z,50.32
2023-05-07T07:13:34.713Z,50.43
2023-05-07T07:16:01.890Z,49.56
2023-05-07T07:18:29.342Z,49.65
2023-05-07T07:20:56.451Z,48.72
2023-05-07T07:23:23.451Z,47.42
2023-05-07T07:25:50.434Z,47.40
2023-05-07T07:28:18.449Z,47.38
2023-05-07T07:30:45.709Z,46.92
2023-05-07T07:33:13.224Z,46.71
2023-05-07T07:35:40.478Z,46.23
2023-05-07T07:38:07.577Z,45.74
2023-05-07T07:40:37.693Z,45.36
2023-05-07T07:43:06.110Z,44.60
2023-05-07T07:45:33.261Z,42.82
2023-05-07T07:48:01.167Z,42.18
2023-05-07T07:50:40.549Z,42.40
2023-05-07T07:53:11.170Z,42.45
2023-05-07T07:55:41.804Z,42.35
2023-05-07T07:58:09.300Z,42.57
2023-05-07T08:00:37.488Z,42.46
2023-05-07T08:03:04.817Z,42.77
2023-05-07T08:05:35.552Z,41.82
2023-05-07T08:08:03.022Z,41.15
2023-05-07T08:10:35.820Z,40.29
2023-05-07T08:13:07.407Z,39.70
2023-05-07T08:15:36.041Z,39.90
2023-05-07T08:18:03.895Z,40.57
2023-05-07T08:20:31.155Z,40.59
2023-05-07T08:22:58.559Z,40.32
2023-05-07T08:25:27.046Z,40.69
2023-05-07T08:27:54.517Z,40.72
2023-05-07T08:30:22.311Z,40.72
2023-05-07T08:32:49.421Z,40.70
2023-05-07T08:35:16.600Z,40.98
2023-05-07T08:37:43.634Z,41.20
2023-05-07T08:40:13.618Z,40.92
2023-05-07T08:42:41.933Z,40.65
2023-05-07T08:45:11.087Z,40.64
2023-05-07T08:47:46.613Z,40.55
2023-05-07T08:50:14.519Z,40.78
2023-05-07T08:52:42.436Z,41.01
2023-05-07T08:55:10.591Z,41.18
2023-05-07T08:57:40.295Z,40.08
2023-05-07T09:00:09.330Z,40.14
2023-05-07T09:02:37.485Z,39.88
2023-05-07T09:05:05.714Z,40.01
2023-05-07T09:07:33.082Z,40.09
2023-05-07T09:10:03.047Z,40.41
2023-05-07T09:12:30.218Z,40.76
2023-05-07T09:15:00.416Z,40.60
2023-05-07T09:17:28.104Z,40.52
2023-05-07T09:19:55.028Z,40.77
2023-05-07T09:22:22.207Z,40.85
2023-05-07T09:24:57.209Z,40.61
2023-05-07T09:27:26.222Z,40.79
2023-05-07T09:29:53.752Z,40.99
2023-05-07T09:32:20.986Z,40.94
2023-05-07T09:34:48.414Z,40.65
2023-05-07T09:37:15.677Z,40.69
2023-05-07T09:39:47.080Z,40.39
2023-05-07T09:42:18.181Z,39.67
2023-05-07T09:44:45.847Z,39.63
2023-05-07T09:47:19.756Z,39.60
2023-05-07T09:49:50.431Z,39.78
2023-05-07T09:52:20.045Z,39.79
2023-05-07T09:54:51.029Z,39.55
2023-05-07T09:57:19.195Z,39.38
2023-05-07T09:59:47.773Z,39.21
2023-05-07T10:02:16.437Z,39.52
2023-05-07T10:04:47.833Z,39.12
2023-05-07T10:07:15.816Z,39.14
2023-05-07T10:09:44.897Z,39.45
2023-05-07T10:12:18.740Z,39.48
2023-05-07T10:14:46.614Z,38.67
2023-05-07T10:17:13.607Z,38.89
2023-05-07T10:19:42.214Z,38.67
2023-05-07T10:22:09.608Z,38.41
2023-05-07T10:24:40.766Z,38.04
2023-05-07T10:27:13.600Z,38.05
2023-05-07T10:30:22.946Z,37.76
2023-05-07T10:32:52.008Z,37.72
2023-05-07T10:35:28.368Z,37.59
2023-05-07T10:37:55.250Z,37.91
2023-05-07T10:40:22.496Z,37.45
2023-05-07T10:43:00.579Z,37.07
2023-05-07T10:45:29.463Z,36.57
2023-05-07T10:50:51.422Z,36.79
2023-05-07T10:53:18.664Z,36.75
2023-05-07T10:56:20.156Z,36.81
2023-05-07T10:58:54.758Z,37.31
2023-05-07T11:01:54.230Z,37.40
2023-05-07T11:04:30.895Z,37.57
2023-05-07T11:07:31.452Z,37.55
2023-05-07T11:10:05.218Z,37.40
2023-05-07T11:12:53.210Z,37.51
2023-05-07T11:15:42.898Z,37.29
2023-05-07T11:18:18.461Z,37.03
2023-05-07T11:20:51.054Z,37.51
2023-05-07T11:23:36.295Z,37.70
2023-05-07T11:26:12.445Z,37.58
2023-05-07T11:28:41.342Z,37.69
2023-05-07T11:31:08.759Z,37.70
2023-05-07T11:33:36.695Z,37.79
2023-05-07T11:36:04.881Z,38.21
2023-05-07T11:38:40.505Z,38.41
2023-05-07T11:41:08.628Z,38.55
2023-05-07T11:43:37.055Z,37.85
2023-05-07T11:46:09.694Z,37.82
2023-05-07T11:48:36.790Z,37.86
2023-05-07T11:51:05.197Z,37.35
2023-05-07T11:53:42.647Z,37.24
2023-05-07T11:56:13.952Z,37.65
2023-05-07T11:58:43.907Z,37.55
2023-05-07T12:01:12.078Z,37.47
2023-05-07T12:03:43.793Z,36.66
2023-05-07T12:06:15.003Z,37.08
2023-05-07T12:08:42.680Z,37.43
2023-05-07T12:11:12.522Z,37.13
2023-05-07T12:13:39.729Z,37.35
2023-05-07T12:16:07.253Z,37.46
2023-05-07T12:18:35.152Z,37.66
2023-05-07T12:21:02.698Z,37.41
2023-05-07T12:23:30.132Z,37.31
2023-05-07T12:25:57.101Z,37.14
2023-05-07T12:28:24.110Z,36.73
2023-05-07T12:30:51.751Z,36.46
2023-05-07T12:33:26.171Z,36.41
2023-05-07T12:35:55.349Z,36.38
2023-05-07T12:38:22.520Z,36.99
2023-05-07T12:40:54.881Z,36.74
2023-05-07T12:43:23.405Z,36.62
2023-05-07T12:45:51.465Z,36.63
2023-05-07T12:48:19.071Z,36.64
2023-05-07T12:50:46.084Z,36.50
2023-05-07T12:53:14.449Z,36.94
2023-05-07T12:55:43.058Z,36.40
2023-05-07T12:58:10.126Z,36.47
2023-05-07T13:00:40.158Z,36.71
2023-05-07T13:03:07.316Z,36.40
2023-05-07T13:05:34.754Z,36.38
2023-05-07T13:08:01.709Z,36.36
2023-05-07T13:10:29.124Z,36.18
2023-05-07T13:12:56.160Z,36.31
2023-05-07T13:15:23.292Z,36.64
2023-05-07T13:17:50.272Z,36.49
2023-05-07T13:20:18.524Z,35.99
2023-05-07T13:22:45.572Z,35.83
2023-05-07T13:25:12.848Z,35.53
2023-05-07T13:27:40.339Z,35.53
2023-05-07T13:30:11.627Z,35.89
2023-05-07T13:32:38.676Z,35.92
2023-05-07T13:35:06.283Z,36.19
2023-05-07T13:37:33.243Z,35.87
2023-05-07T13:40:00.373Z,35.73
2023-05-07T13:42:27.505Z,35.05
2023-05-07T13:44:54.426Z,34.93
2023-05-07T13:47:22.633Z,34.54
2023-05-07T13:49:51.082Z,34.63
2023-05-07T13:52:18.271Z,34.70
2023-05-07T13:54:45.127Z,34.89
2023-05-07T13:57:12.068Z,35.12
2023-05-07T13:59:39.087Z,35.49
2023-05-07T14:02:06.065Z,35.29
2023-05-07T14:04:32.961Z,35.44
2023-05-07T14:06:59.897Z,35.92
2023-05-07T14:09:26.827Z,36.03
2023-05-07T14:11:53.805Z,35.93
2023-05-07T14:14:20.750Z,36.10
2023-05-07T14:16:49.409Z,35.30
2023-05-07T14:19:17.889Z,35.42
2023-05-07T14:21:44.798Z,35.51
2023-05-07T14:24:11.696Z,35.56
2023-05-07T14:26:38.635Z,35.54
2023-05-07T14:29:05.604Z,35.63
2023-05-07T14:31:32.581Z,35.79
2023-05-07T14:34:00.117Z,35.57
2023-05-07T14:36:31.344Z,35.71
2023-05-07T14:39:00.466Z,35.61
2023-05-07T14:41:27.545Z,35.16
2023-05-07T14:43:54.541Z,35.59
2023-05-07T14:46:21.600Z,35.84
2023-05-07T14:48:48.531Z,35.62
2023-05-07T14:51:15.965Z,35.90
2023-05-07T14:53:42.930Z,35.76
2023-05-07T14:56:09.957Z,36.01
2023-05-07T14:58:37.150Z,36.12
2023-05-07T15:01:04.595Z,36.45
2023-05-07T15:03:31.593Z,36.29
2023-05-07T15:05:58.506Z,36.29
2023-05-07T15:08:25.455Z,36.25
2023-05-07T15:10:52.451Z,36.60
2023-05-07T15:13:19.485Z,36.67
2023-05-07T15:15:46.955Z,36.39
2023-05-07T15:18:14.244Z,36.72
2023-05-07T15:20:41.652Z,36.83
2023-05-07T15:23:13.358Z,36.89
2023-05-07T15:25:41.236Z,36.90
2023-05-07T15:28:08.147Z,36.79
2023-05-07T15:30:35.121Z,37.13
2023-05-07T15:33:03.596Z,37.33
2023-05-07T15:35:31.134Z,37.50
2023-05-07T15:37:58.666Z,37.62
2023-05-07T15:40:25.727Z,37.94
2023-05-07T15:42:55.584Z,37.59
2023-05-07T15:45:22.867Z,37.39
2023-05-07T15:47:49.996Z,37.59
2023-05-07T15:50:17.028Z,37.61
2023-05-07T15:52:46.086Z,37.59
2023-05-07T15:55:13.349Z,37.63
2023-05-07T15:57:40.666Z,37.98
2023-05-07T16:00:10.001Z,37.87
2023-05-07T16:02:40.445Z,38.02
2023-05-07T16:05:10.873Z,38.10
2023-05-07T16:07:38.176Z,38.22
2023-05-07T16:10:05.805Z,38.54
2023-05-07T16:12:32.792Z,38.79
2023-05-07T16:14:59.758Z,38.81
2023-05-07T16:17:26.993Z,39.07
2023-05-07T16:19:54.123Z,39.20
2023-05-07T16:22:22.128Z,39.57
2023-05-07T16:24:49.077Z,38.27
2023-05-07T16:27:15.984Z,38.10
2023-05-07T16:29:42.899Z,38.00
2023-05-07T16:32:09.937Z,37.76
2023-05-07T16:34:36.893Z,38.22
2023-05-07T16:37:04.505Z,38.37
2023-05-07T16:39:31.585Z,38.62
2023-05-07T16:41:58.598Z,38.72
2023-05-07T16:44:25.798Z,38.66
2023-05-07T16:46:53.406Z,38.51
2023-05-07T16:49:21.250Z,38.19
2023-05-07T16:51:48.206Z,38.37
2023-05-07T16:54:15.141Z,38.43
2023-05-07T16:56:42.993Z,38.80
2023-05-07T16:59:10.025Z,39.35
2023-05-07T17:01:40.141Z,39.21
2023-05-07T17:04:07.174Z,39.85
2023-05-07T17:06:34.352Z,40.55
2023-05-07T17:09:01.377Z,41.00
2023-05-07T17:11:31.332Z,41.39
2023-05-07T17:13:58.376Z,42.13
2023-05-07T17:16:25.769Z,42.51
2023-05-07T17:18:52.767Z,42.92
2023-05-07T17:21:19.797Z,43.14
2023-05-07T17:23:46.965Z,42.87
2023-05-07T17:26:17.193Z,42.76
2023-05-07T17:28:44.143Z,42.47
2023-05-07T17:31:11.357Z,42.71
2023-05-07T17:33:38.446Z,42.74
2023-05-07T17:36:05.957Z,42.73
2023-05-07T17:38:32.916Z,42.82
2023-05-07T17:40:59.797Z,43.08
2023-05-07T17:43:26.765Z,43.10
2023-05-07T17:45:53.753Z,43.03
2023-05-07T17:48:20.726Z,42.86
2023-05-07T17:50:47.657Z,43.14
2023-05-07T17:53:14.625Z,43.12
2023-05-07T17:55:42.632Z,43.12
2023-05-07T17:58:09.952Z,43.44
2023-05-07T18:00:36.884Z,43.70
2023-05-07T18:03:04.288Z,43.55
2023-05-07T18:05:31.463Z,43.66
2023-05-07T18:07:58.317Z,43.60
2023-05-07T18:10:25.414Z,43.19
2023-05-07T18:12:52.414Z,43.25
2023-05-07T18:15:19.596Z,43.28
2023-05-07T18:17:46.655Z,43.24
2023-05-07T18:20:13.989Z,43.42
2023-05-07T18:22:41.465Z,43.70
2023-05-07T18:25:08.576Z,43.60
2023-05-07T18:27:35.560Z,43.28
2023-05-07T18:30:03.055Z,43.46
2023-05-07T18:32:30.367Z,43.50
2023-05-07T18:34:57.261Z,43.64
2023-05-07T18:37:26.122Z,43.34
2023-05-07T18:39:53.815Z,43.40
2023-05-07T18:42:20.998Z,43.48
2023-05-07T18:44:47.948Z,43.65
2023-05-07T18:47:14.858Z,43.86
2023-05-07T18:49:41.772Z,43.54
2023-05-07T18:52:11.760Z,43.78
2023-05-07T18:54:38.660Z,43.90
2023-05-07T18:57:05.545Z,43.80
2023-05-07T18:59:32.424Z,44.08
2023-05-07T19:01:59.237Z,44.02
2023-05-07T19:04:26.239Z,43.99
2023-05-07T19:06:57.257Z,44.08
2023-05-07T19:09:24.340Z,44.29
2023-05-07T19:11:51.255Z,44.26
2023-05-07T19:14:18.219Z,44.34
2023-05-07T19:16:45.116Z,44.25
2023-05-07T19:19:11.992Z,44.18
2023-05-07T19:21:39.028Z,44.54
2023-05-07T19:24:06.410Z,44.63
2023-05-07T19:26:33.368Z,44.47
2023-05-07T19:31:30.693Z,45.01
2023-05-07T19:33:57.678Z,44.75
2023-05-07T19:36:24.609Z,45.12
2023-05-07T19:38:53.396Z,45.43
2023-05-07T19:41:22.112Z,45.48
2023-05-07T19:43:49.036Z,45.29
2023-05-07T19:46:18.886Z,45.38
2023-05-07T19:48:46.265Z,45.25
2023-05-07T19:51:13.413Z,45.39
2023-05-07T19:53:42.459Z,45.52
2023-05-07T19:56:10.275Z,45.38
2023-05-07T19:58:37.308Z,45.25
2023-05-07T20:01:04.709Z,45.55
2023-05-07T20:03:35.020Z,45.54
2023-05-07T20:06:02.378Z,45.43
2023-05-07T20:08:29.309Z,45.45
2023-05-07T20:10:57.541Z,45.18
2023-05-07T20:13:24.482Z,45.35
2023-05-07T20:15:51.430Z,45.30
2023-05-07T20:18:18.437Z,45.48
2023-05-07T20:20:45.461Z,45.34
2023-05-07T20:23:12.407Z,45.36
2023-05-07T20:25:41.674Z,45.60
2023-05-07T20:28:08.502Z,45.35
2023-05-07T20:30:35.532Z,45.43
2023-05-07T20:33:04.057Z,45.68
2023-05-07T20:35:32.337Z,45.67
2023-05-07T20:37:59.249Z,45.58
2023-05-07T20:40:27.068Z,45.68
2023-05-07T20:42:54.064Z,45.92
2023-05-07T20:45:20.944Z,45.85
2023-05-07T20:47:47.992Z,45.72
2023-05-07T20:50:15.161Z,45.78
2023-05-07T20:52:42.408Z,45.85
2023-05-07T20:55:09.610Z,45.76
2023-05-07T20:57:36.621Z,45.97
2023-05-07T21:00:04.190Z,45.85
2023-05-07T21:02:31.162Z,46.18
2023-05-07T21:05:01.229Z,45.96
2023-05-07T21:07:28.057Z,45.75
2023-05-07T21:09:54.973Z,45.75
2023-05-07T21:12:22.328Z,45.68
2023-05-07T21:14:49.566Z,45.73
2023-05-07T21:17:16.710Z,45.65
2023-05-07T21:19:43.615Z,45.73
2023-05-07T21:22:10.573Z,45.73
2023-05-07T21:24:37.544Z,45.57
2023-05-07T21:27:07.846Z,45.45
2023-05-07T21:29:34.599Z,45.84
2023-05-07T21:32:03.642Z,46.06
2023-05-07T21:34:30.766Z,46.19
2023-05-07T21:36:58.259Z,46.18
2023-05-07T21:39:25.311Z,46.37
2023-05-07T21:41:52.137Z,46.53
2023-05-07T21:44:18.955Z,46.51
2023-05-07T21:46:45.895Z,46.52
2023-05-07T21:49:12.963Z,46.88
2023-05-07T21:51:40.102Z,46.91
2023-05-07T21:54:07.136Z,47.02
2023-05-07T21:56:34.397Z,46.91
2023-05-07T21:59:01.363Z,47.00
2023-05-07T22:01:28.372Z,47.02
2023-05-07T22:03:55.766Z,46.90
2023-05-07T22:06:22.849Z,47.12
2023-05-07T22:08:49.992Z,47.26
2023-05-07T22:11:17.122Z,47.41
2023-05-07T22:13:44.033Z,47.52
2023-05-07T22:16:11.065Z,47.64
2023-05-07T22:18:38.152Z,47.67
2023-05-07T22:21:05.331Z,47.63
2023-05-07T22:23:32.198Z,47.68
2023-05-07T22:25:59.212Z,47.85
2023-05-07T22:28:26.170Z,48.02
2023-05-07T22:30:53.027Z,47.84
2023-05-07T22:33:20.065Z,47.58
2023-05-07T22:35:46.975Z,47.97
2023-05-07T22:38:13.880Z,47.87
2023-05-07T22:40:40.831Z,47.80
2023-05-07T22:43:07.707Z,47.71
2023-05-07T22:45:34.646Z,48.07
2023-05-07T22:48:01.567Z,47.97
2023-05-07T22:50:28.479Z,47.90
2023-05-07T22:52:55.417Z,47.86
2023-05-07T22:55:22.241Z,48.05
2023-05-07T22:57:49.144Z,48.06
2023-05-07T23:00:16.288Z,48.28
2023-05-07T23:02:43.264Z,48.29
2023-05-07T23:05:10.116Z,48.24
2023-05-07T23:07:37.519Z,48.38
2023-05-07T23:10:05.341Z,48.46
2023-05-07T23:12:32.177Z,48.36
2023-05-07T23:14:59.069Z,48.53
2023-05-07T23:17:25.930Z,48.53
2023-05-07T23:19:52.820Z,48.51
2023-05-07T23:22:19.644Z,48.54
2023-05-07T23:24:46.460Z,48.64
2023-05-07T23:27:13.365Z,48.57
2023-05-07T23:29:41.316Z,48.53
2023-05-07T23:32:08.215Z,48.43
2023-05-07T23:34:35.098Z,48.27
2023-05-07T23:37:01.978Z,48.19
2023-05-07T23:39:28.783Z,48.21
2023-05-07T23:41:55.698Z,48.32
2023-05-07T23:44:22.572Z,48.46
2023-05-07T23:46:49.570Z,48.51
2023-05-07T23:49:16.578Z,48.82
2023-05-07T23:51:43.513Z,48.68
2023-05-07T23:54:10.595Z,48.78
2023-05-07T23:56:37.482Z,48.90
2023-05-07T23:59:04.310Z,48.67
